Time;durP1;ratioP1;P1;durP2;ratioP2;P2;SDS_P1;SDS_P2;PMS_P1;PMS_P2;Temp;Humidity;BMP_temperature;BMP_pressure;BME280_temperature;BME280_humidity;BME280_pressure;Samples;Min_cycle;Max_cycle;Signal;HPM_P1;HPM_P2
2021/09/27 00:02:21;;;;;;;2.35;1.80;;;24.10;55.40;;;;;;5016106;28;20468;-54
2021/09/27 00:04:46;;;;;;;3.80;1.90;;;24.10;55.40;;;;;;5019758;28;20060;-60
2021/09/27 00:07:12;;;;;;;2.35;1.80;;;24.10;55.40;;;;;;5019537;28;20045;-59
2021/09/27 00:09:37;;;;;;;3.35;1.92;;;24.10;55.40;;;;;;5019781;28;20454;-60
2021/09/27 00:12:08;;;;;;;2.47;1.92;;;24.00;55.30;;;;;;5025473;28;20488;-60
2021/09/27 00:14:34;;;;;;;2.55;1.55;;;24.00;55.40;;;;;;5021344;28;20026;-59
2021/09/27 00:17:00;;;;;;;2.58;1.85;;;24.00;55.40;;;;;;5032977;28;20140;-54
2021/09/27 00:19:26;;;;;;;2.25;1.70;;;24.00;55.40;;;;;;5023405;28;20551;-60
2021/09/27 00:21:54;;;;;;;2.13;1.70;;;24.00;55.40;;;;;;5031159;28;20049;-53
2021/09/27 00:24:20;;;;;;;2.10;1.70;;;24.00;55.40;;;;;;5016892;28;20806;-60
2021/09/27 00:26:47;;;;;;;2.33;2.08;;;24.00;56.00;;;;;;5029680;28;20034;-53
2021/09/27 00:29:14;;;;;;;2.20;1.70;;;24.00;55.50;;;;;;5016930;28;20044;-63
2021/09/27 00:31:40;;;;;;;2.50;1.65;;;24.00;55.40;;;;;;5019136;28;20029;-67
2021/09/27 00:34:06;;;;;;;2.78;1.95;;;23.90;55.40;;;;;;5026364;28;20030;-60
2021/09/27 00:36:32;;;;;;;2.03;1.67;;;24.00;55.40;;;;;;5024397;28;20507;-60
2021/09/27 00:38:58;;;;;;;2.30;1.63;;;24.00;55.50;;;;;;5020858;28;20030;-58
2021/09/27 00:41:25;;;;;;;2.00;1.58;;;23.90;55.40;;;;;;5020552;28;20033;-60
2021/09/27 00:43:51;;;;;;;2.80;1.80;;;23.90;55.40;;;;;;5027794;28;20078;-66
2021/09/27 00:46:22;;;;;;;2.63;1.70;;;23.90;55.40;;;;;;5030955;28;20461;-52
2021/09/27 00:48:48;;;;;;;2.45;1.60;;;23.90;55.40;;;;;;5025656;28;20025;-60
2021/09/27 00:51:33;;;;;;;2.17;1.60;;;23.90;55.40;;;;;;5012891;28;20112;-52
2021/09/27 00:54:04;;;;;;;2.30;1.77;;;23.90;55.40;;;;;;5027614;28;20351;-55
2021/09/27 00:56:38;;;;;;;2.78;1.70;;;23.90;55.40;;;;;;5024874;28;20381;-60
2021/09/27 00:59:04;;;;;;;2.30;1.70;;;23.90;55.40;;;;;;5025869;28;20187;-60
2021/09/27 01:01:31;;;;;;;2.30;1.80;;;23.90;55.40;;;;;;5017583;28;20057;-54
2021/09/27 01:03:57;;;;;;;2.28;1.67;;;23.90;55.40;;;;;;5025793;28;20041;-66
2021/09/27 01:07:01;;;;;;;2.47;1.85;;;23.90;55.40;;;;;;5027809;28;20696;-60
2021/09/27 01:09:54;;;;;;;2.15;1.70;;;23.90;55.40;;;;;;5010454;28;20455;-66
2021/09/27 01:12:28;;;;;;;2.40;1.70;;;23.90;55.50;;;;;;5019286;28;20030;-60
2021/09/27 01:15:40;;;;;;;3.08;1.80;;;23.90;55.50;;;;;;5009529;28;20498;-65
2021/09/27 01:18:35;;;;;;;2.00;1.60;;;23.80;55.40;;;;;;5005467;28;20034;-53
2021/09/27 01:21:39;;;;;;;1.88;1.50;;;23.80;55.40;;;;;;5032507;28;20086;-57
2021/09/27 01:24:37;;;;;;;2.50;1.80;;;23.80;55.40;;;;;;5020026;28;20025;-65
2021/09/27 01:27:39;;;;;;;2.20;1.70;;;23.80;55.40;;;;;;5022839;28;20836;-64
2021/09/27 01:30:38;;;;;;;2.35;1.80;;;23.80;55.40;;;;;;5017431;28;20615;-66
2021/09/27 01:33:13;;;;;;;2.92;1.80;;;23.80;55.40;;;;;;5019122;28;20061;-60
2021/09/27 01:36:14;;;;;;;2.08;1.67;;;23.80;55.40;;;;;;5016003;28;20079;-50
2021/09/27 01:39:06;;;;;;;1.88;1.55;;;23.80;55.50;;;;;;5021453;28;20030;-59
2021/09/27 01:41:51;;;;;;;2.70;1.70;;;23.80;55.50;;;;;;5019777;28;20109;-59
2021/09/27 01:44:35;;;;;;;2.00;1.58;;;23.80;55.50;;;;;;5019023;28;20112;-60
2021/09/27 01:47:07;;;;;;;2.10;1.60;;;23.80;55.50;;;;;;5021553;28;20038;-60
2021/09/27 01:50:13;;;;;;;1.92;1.63;;;23.70;55.40;;;;;;5021165;28;20034;-60
2021/09/27 01:52:46;;;;;;;2.10;1.60;;;23.70;55.40;;;;;;5021688;28;20037;-60
2021/09/27 01:55:21;;;;;;;2.10;1.60;;;23.70;55.40;;;;;;5023953;28;20032;-60
2021/09/27 01:58:05;;;;;;;2.00;1.70;;;23.70;55.50;;;;;;5028844;28;20049;-65
2021/09/27 02:00:40;;;;;;;2.20;1.70;;;23.70;55.40;;;;;;5018359;28;20708;-65
2021/09/27 02:03:26;;;;;;;2.30;1.67;;;23.70;55.50;;;;;;5022545;28;20025;-60
2021/09/27 02:06:12;;;;;;;2.00;1.58;;;23.80;55.50;;;;;;5024077;28;20083;-60
2021/09/27 02:08:59;;;;;;;1.90;1.50;;;23.70;55.50;;;;;;5031711;28;20024;-65
2021/09/27 02:11:32;;;;;;;2.15;1.70;;;23.70;55.40;;;;;;5022451;28;20037;-60
2021/09/27 02:14:13;;;;;;;1.85;1.40;;;23.70;55.50;;;;;;5024433;28;20104;-60
2021/09/27 02:17:06;;;;;;;2.15;1.50;;;23.70;55.50;;;;;;5028514;28;20160;-63
2021/09/27 02:19:53;;;;;;;2.00;1.50;;;23.70;55.50;;;;;;5021254;28;20036;-64
2021/09/27 02:22:26;;;;;;;1.70;1.27;;;23.70;55.50;;;;;;5016726;28;20041;-56
2021/09/27 02:25:11;;;;;;;2.00;1.50;;;23.70;55.40;;;;;;5028417;28;20033;-60
2021/09/27 02:27:37;;;;;;;2.10;1.50;;;23.70;55.40;;;;;;5019659;28;20444;-57
2021/09/27 02:30:06;;;;;;;2.20;1.65;;;23.70;55.50;;;;;;5020497;28;20057;-60
2021/09/27 02:32:41;;;;;;;1.90;1.50;;;23.70;55.50;;;;;;5026200;28;20034;-60
2021/09/27 02:35:25;;;;;;;2.75;1.70;;;23.70;55.50;;;;;;5014209;28;20053;-60
2021/09/27 02:38:16;;;;;;;1.92;1.50;;;23.70;55.50;;;;;;5024722;28;20029;-61
2021/09/27 02:40:45;;;;;;;2.20;1.70;;;23.60;55.40;;;;;;5035384;28;20415;-55
2021/09/27 02:43:12;;;;;;;2.00;1.60;;;23.70;56.00;;;;;;5019978;28;20101;-65
2021/09/27 02:45:40;;;;;;;1.83;1.55;;;23.60;55.40;;;;;;5013321;28;20037;-61
2021/09/27 02:48:14;;;;;;;2.15;1.67;;;23.70;55.50;;;;;;5026735;28;20105;-65
2021/09/27 02:50:58;;;;;;;1.85;1.45;;;23.70;55.50;;;;;;5024207;28;20018;-62
2021/09/27 02:53:24;;;;;;;2.05;1.55;;;23.60;55.40;;;;;;5028636;28;20026;-61
2021/09/27 02:56:08;;;;;;;2.25;1.70;;;23.60;55.90;;;;;;5029626;28;20029;-57
2021/09/27 02:58:44;;;;;;;2.30;1.50;;;23.60;55.40;;;;;;5019845;28;20057;-59
2021/09/27 03:01:22;;;;;;;2.20;1.55;;;23.60;55.40;;;;;;5018904;28;20069;-65
2021/09/27 03:04:07;;;;;;;2.00;1.60;;;23.60;55.40;;;;;;5024956;28;20096;-51
2021/09/27 03:06:52;;;;;;;1.90;1.50;;;23.60;55.50;;;;;;5022074;28;20397;-60
2021/09/27 03:09:29;;;;;;;1.90;1.50;;;23.60;55.40;;;;;;5016605;28;20109;-65
2021/09/27 03:12:19;;;;;;;1.90;1.48;;;23.60;55.40;;;;;;5022011;28;20022;-53
2021/09/27 03:15:07;;;;;;;2.10;1.50;;;23.60;55.40;;;;;;5025576;28;20492;-60
2021/09/27 03:17:39;;;;;;;1.80;1.40;;;23.60;55.50;;;;;;5013212;28;20585;-55
2021/09/27 03:20:11;;;;;;;2.05;1.50;;;23.60;55.40;;;;;;5022436;28;20056;-60
2021/09/27 03:23:01;;;;;;;1.88;1.50;;;23.60;55.40;;;;;;5019165;28;20022;-61
2021/09/27 03:25:48;;;;;;;2.03;1.70;;;23.60;55.50;;;;;;5026661;28;20029;-60
2021/09/27 03:28:20;;;;;;;1.85;1.50;;;23.60;55.50;;;;;;5029462;28;20544;-60
2021/09/27 03:30:58;;;;;;;2.20;1.70;;;23.60;55.40;;;;;;5018472;28;20188;-51
2021/09/27 03:33:35;;;;;;;2.70;1.60;;;23.60;55.50;;;;;;5022414;28;20036;-60
2021/09/27 03:36:32;;;;;;;2.55;1.70;;;23.60;55.50;;;;;;5010741;28;20037;-51
2021/09/27 03:39:09;;;;;;;2.10;1.63;;;23.60;55.50;;;;;;5021118;28;20168;-55
2021/09/27 03:41:49;;;;;;;1.90;1.52;;;23.60;55.50;;;;;;5023637;28;20026;-53
2021/09/27 03:44:21;;;;;;;;;;;23.60;55.50;;;;;;5015607;28;20045;-61
2021/09/27 03:47:06;;;;;;;1.98;1.50;;;23.60;55.50;;;;;;5019179;28;19923;-67
2021/09/27 03:49:48;;;;;;;1.90;1.50;;;23.60;55.50;;;;;;5024738;28;20103;-64
2021/09/27 03:52:31;;;;;;;2.05;1.50;;;23.60;55.50;;;;;;5025003;28;20037;-66
2021/09/27 03:55:09;;;;;;;1.63;1.42;;;23.50;55.40;;;;;;5022537;28;20042;-60
2021/09/27 03:57:54;;;;;;;1.92;1.48;;;23.50;55.40;;;;;;5018838;28;20405;-61
2021/09/27 04:00:31;;;;;;;2.00;1.40;;;23.50;55.90;;;;;;5011793;28;20052;-60
2021/09/27 04:03:00;;;;;;;2.10;1.40;;;23.60;55.50;;;;;;5020577;28;20093;-56
2021/09/27 04:05:41;;;;;;;1.83;1.50;;;23.50;55.40;;;;;;5021213;28;20033;-65
2021/09/27 04:08:32;;;;;;;1.77;1.40;;;23.50;55.40;;;;;;5023123;28;20079;-60
2021/09/27 04:11:27;;;;;;;2.55;1.50;;;23.50;55.40;;;;;;5020769;28;20481;-66
2021/09/27 04:14:04;;;;;;;1.75;1.35;;;23.50;55.50;;;;;;5021877;28;20062;-60
2021/09/27 04:17:23;;;;;;;1.70;1.50;;;23.50;55.50;;;;;;5023892;28;20033;-60
2021/09/27 04:20:13;;;;;;;2.13;1.63;;;23.50;55.50;;;;;;5005388;28;20049;-53
2021/09/27 04:22:42;;;;;;;2.00;1.70;;;23.50;55.60;;;;;;5023265;28;20053;-51
2021/09/27 04:25:29;;;;;;;1.52;1.30;;;23.50;55.50;;;;;;5018379;28;20100;-60
2021/09/27 04:28:29;;;;;;;2.00;1.50;;;23.50;55.50;;;;;;5017203;28;20654;-60
2021/09/27 04:31:06;;;;;;;2.38;1.40;;;23.50;55.60;;;;;;5016342;28;20038;-60
2021/09/27 04:33:54;;;;;;;2.13;1.50;;;23.50;55.60;;;;;;5027542;28;20025;-60
2021/09/27 04:36:30;;;;;;;2.17;1.63;;;23.50;55.50;;;;;;5013120;28;20041;-52
2021/09/27 04:38:59;;;;;;;2.28;1.60;;;23.40;55.50;;;;;;5013273;28;20430;-60
2021/09/27 04:41:43;;;;;;;1.73;1.42;;;23.50;55.50;;;;;;5026236;28;20065;-57
2021/09/27 04:44:21;;;;;;;1.83;1.42;;;23.40;55.40;;;;;;5018637;28;20044;-59
2021/09/27 04:47:06;;;;;;;2.10;1.70;;;23.40;55.50;;;;;;5016834;28;20646;-65
2021/09/27 04:49:40;;;;;;;1.80;1.50;;;23.40;55.50;;;;;;5020816;28;20033;-56
2021/09/27 04:52:19;;;;;;;1.90;1.40;;;23.40;55.50;;;;;;5017830;28;20034;-51
2021/09/27 04:55:23;;;;;;;2.30;1.60;;;23.40;55.80;;;;;;5024479;28;20534;-55
2021/09/27 04:57:54;;;;;;;1.90;1.50;;;23.40;55.50;;;;;;5020186;28;20045;-64
2021/09/27 05:00:49;;;;;;;2.25;1.55;;;23.40;55.50;;;;;;5016072;28;20029;-66
2021/09/27 05:03:45;;;;;;;1.83;1.50;;;23.40;55.60;;;;;;5025441;28;20025;-59
2021/09/27 05:06:17;;;;;;;2.10;1.50;;;23.40;55.50;;;;;;5021370;28;20087;-56
2021/09/27 05:09:04;;;;;;;1.80;1.40;;;23.40;55.60;;;;;;5015304;28;20712;-64
2021/09/27 05:11:58;;;;;;;2.20;1.65;;;23.40;55.60;;;;;;5016858;28;20083;-55
2021/09/27 05:14:27;;;;;;;2.20;1.73;;;23.40;55.50;;;;;;5012149;28;20033;-59
2021/09/27 05:17:23;;;;;;;2.10;1.60;;;23.40;55.50;;;;;;5034704;28;20034;-60
2021/09/27 05:20:16;;;;;;;2.03;1.60;;;23.40;55.60;;;;;;5015805;28;20030;-61
2021/09/27 05:22:53;;;;;;;2.22;1.70;;;23.40;55.60;;;;;;5020408;28;20029;-60
2021/09/27 05:25:37;;;;;;;2.17;1.60;;;23.40;55.60;;;;;;5027406;28;20600;-61
2021/09/27 05:28:23;;;;;;;2.45;1.88;;;23.40;55.80;;;;;;5015826;28;20601;-60
2021/09/27 05:31:14;;;;;;;2.50;1.92;;;23.50;55.60;;;;;;5018709;28;20041;-55
2021/09/27 05:34:10;;;;;;;2.30;1.85;;;23.60;55.40;;;;;;5015367;28;20173;-53
2021/09/27 05:37:07;;;;;;;2.75;2.03;;;23.60;55.30;;;;;;5024718;28;20032;-60
2021/09/27 05:40:00;;;;;;;2.70;1.83;;;23.80;55.00;;;;;;5023173;28;20504;-62
2021/09/27 05:42:46;;;;;;;2.47;1.80;;;23.90;54.80;;;;;;5024722;28;20034;-55
2021/09/27 05:45:31;;;;;;;2.92;1.88;;;24.00;54.60;;;;;;5023509;28;20037;-60
2021/09/27 05:48:20;;;;;;;2.50;2.00;;;24.10;54.50;;;;;;5020388;28;20519;-63
2021/09/27 05:50:51;;;;;;;2.47;1.92;;;24.20;54.40;;;;;;5022136;28;20022;-60
2021/09/27 05:53:20;;;;;;;2.88;2.20;;;24.30;54.20;;;;;;5024284;28;20030;-60
2021/09/27 05:55:56;;;;;;;2.97;2.08;;;24.30;54.00;;;;;;5025548;28;20021;-56
2021/09/27 05:58:36;;;;;;;3.28;2.00;;;24.40;53.80;;;;;;5023159;28;20123;-52
2021/09/27 06:01:20;;;;;;;2.53;2.08;;;24.50;53.60;;;;;;5023071;28;20068;-58
2021/09/27 06:04:03;;;;;;;2.33;1.85;;;24.50;53.50;;;;;;5026333;28;20118;-61
2021/09/27 06:06:53;;;;;;;3.55;2.20;;;24.70;53.40;;;;;;5025212;28;20082;-60
2021/09/27 06:09:42;;;;;;;2.67;2.05;;;24.70;53.30;;;;;;5024952;28;20108;-66
2021/09/27 06:12:21;;;;;;;2.13;1.73;;;24.80;53.10;;;;;;5026843;28;20155;-60
2021/09/27 06:14:50;;;;;;;2.65;2.15;;;24.70;53.10;;;;;;5021728;28;20037;-58
2021/09/27 06:17:35;;;;;;;2.58;1.60;;;24.80;53.10;;;;;;5012954;28;20053;-60
2021/09/27 06:20:13;;;;;;;2.47;1.88;;;24.70;53.20;;;;;;5017400;28;20037;-60
2021/09/27 06:22:49;;;;;;;2.50;1.90;;;24.70;53.20;;;;;;5022233;28;20372;-60
2021/09/27 06:25:21;;;;;;;2.47;1.90;;;24.80;53.30;;;;;;5025477;28;20220;-60
2021/09/27 06:28:22;;;;;;;2.65;2.10;;;24.80;53.20;;;;;;5023448;28;20052;-64
2021/09/27 06:31:09;;;;;;;3.13;2.10;;;24.80;53.20;;;;;;5022909;28;20581;-53
2021/09/27 06:33:44;;;;;;;3.20;1.70;;;24.80;53.20;;;;;;5030474;28;20025;-57
2021/09/27 06:36:19;;;;;;;2.53;1.95;;;24.80;53.30;;;;;;5025682;28;20109;-61
2021/09/27 06:38:45;;;;;;;2.53;1.70;;;24.80;53.20;;;;;;5023103;28;20068;-60
2021/09/27 06:41:17;;;;;;;2.55;1.90;;;24.80;53.30;;;;;;5027854;28;20037;-64
2021/09/27 06:43:43;;;;;;;2.20;1.60;;;24.80;53.40;;;;;;5021521;28;20116;-61
2021/09/27 06:46:09;;;;;;;2.83;1.90;;;24.80;53.30;;;;;;5029698;28;20133;-60
2021/09/27 06:48:35;;;;;;;2.10;1.67;;;24.80;53.10;;;;;;5027874;28;20048;-65
2021/09/27 06:51:00;;;;;;;2.97;2.00;;;24.80;53.20;;;;;;5024228;28;20065;-62
2021/09/27 06:53:28;;;;;;;2.70;2.03;;;24.80;53.60;;;;;;5025300;28;20091;-61
2021/09/27 06:55:54;;;;;;;2.22;1.70;;;24.90;53.20;;;;;;5025540;28;20033;-58
2021/09/27 06:58:23;;;;;;;2.83;1.90;;;24.90;53.00;;;;;;5025128;28;20037;-65
2021/09/27 07:00:50;;;;;;;2.53;1.93;;;24.90;53.10;;;;;;5025765;28;20472;-59
2021/09/27 07:03:15;;;;;;;2.30;1.75;;;24.90;53.10;;;;;;5028730;28;20033;-59
2021/09/27 07:05:42;;;;;;;1.92;1.52;;;24.90;53.70;;;;;;5030140;28;20032;-60
2021/09/27 07:08:07;;;;;;;2.10;1.60;;;24.90;53.30;;;;;;5024567;28;20036;-63
2021/09/27 07:10:33;;;;;;;2.20;1.70;;;25.00;53.50;;;;;;5031402;28;20025;-59
2021/09/27 07:12:59;;;;;;;2.50;2.00;;;25.00;53.20;;;;;;5034607;28;20029;-62
2021/09/27 07:15:25;;;;;;;2.55;1.90;;;25.00;53.10;;;;;;5033814;28;20030;-60
2021/09/27 07:17:50;;;;;;;2.50;1.88;;;25.00;53.00;;;;;;5032543;28;20353;-55
2021/09/27 07:20:20;;;;;;;3.25;2.05;;;25.10;53.00;;;;;;5029922;28;20084;-65
2021/09/27 07:22:46;;;;;;;2.53;1.95;;;25.10;52.90;;;;;;5032147;28;20033;-64
2021/09/27 07:25:13;;;;;;;4.07;2.30;;;25.00;52.90;;;;;;5027282;28;20481;-59
2021/09/27 07:27:39;;;;;;;2.50;1.80;;;25.10;53.00;;;;;;5028050;28;20065;-66
2021/09/27 07:30:07;;;;;;;2.75;2.10;;;25.10;53.00;;;;;;5028278;28;20601;-59
2021/09/27 07:32:34;;;;;;;2.50;2.10;;;25.10;52.90;;;;;;5036916;28;20615;-59
2021/09/27 07:34:59;;;;;;;2.90;2.20;;;25.10;53.40;;;;;;5026400;28;20144;-60
2021/09/27 07:37:25;;;;;;;2.95;2.05;;;25.10;52.80;;;;;;5020922;28;20052;-60
2021/09/27 07:39:51;;;;;;;3.15;2.10;;;25.10;52.80;;;;;;5037849;28;20029;-62
2021/09/27 07:42:16;;;;;;;3.03;2.08;;;25.10;52.80;;;;;;5037754;28;20026;-60
2021/09/27 07:44:42;;;;;;;2.58;1.98;;;25.10;52.80;;;;;;5030626;28;20045;-64
2021/09/27 07:47:08;;;;;;;3.42;2.58;;;25.10;52.70;;;;;;5021266;28;20036;-59
2021/09/27 07:49:34;;;;;;;2.78;2.00;;;25.10;52.80;;;;;;5021811;28;20064;-60
2021/09/27 07:52:00;;;;;;;2.60;2.00;;;25.10;53.30;;;;;;5022382;28;20034;-59
2021/09/27 07:54:26;;;;;;;2.60;2.00;;;25.20;52.80;;;;;;5030000;28;20025;-60
2021/09/27 07:56:52;;;;;;;2.83;2.05;;;25.10;52.70;;;;;;5024859;28;20040;-56
2021/09/27 07:59:18;;;;;;;2.67;2.05;;;25.10;52.80;;;;;;5034850;28;20045;-59
2021/09/27 08:01:44;;;;;;;2.80;2.13;;;25.20;52.80;;;;;;5032394;28;20099;-59
2021/09/27 08:04:09;;;;;;;3.33;2.30;;;25.10;52.70;;;;;;5029368;28;20592;-58
2021/09/27 08:06:36;;;;;;;3.33;2.10;;;25.20;52.70;;;;;;5039824;28;20030;-58
2021/09/27 08:09:03;;;;;;;2.58;2.03;;;25.20;52.80;;;;;;5031763;28;20037;-48
2021/09/27 08:11:30;;;;;;;2.83;2.15;;;25.20;52.70;;;;;;5024855;28;20104;-55
2021/09/27 08:13:56;;;;;;;2.92;2.00;;;25.20;52.70;;;;;;5026741;28;20017;-53
2021/09/27 08:16:21;;;;;;;2.80;2.10;;;25.20;52.80;;;;;;5017630;28;20524;-59
2021/09/27 08:18:47;;;;;;;2.35;1.80;;;25.20;52.70;;;;;;5013961;28;20417;-60
2021/09/27 08:21:16;;;;;;;2.55;1.95;;;25.20;52.70;;;;;;5024335;28;20036;-59
2021/09/27 08:23:42;;;;;;;3.08;2.20;;;25.20;52.80;;;;;;5013662;28;20790;-64
2021/09/27 08:26:07;;;;;;;2.20;1.75;;;25.20;52.80;;;;;;5017407;28;20030;-59
2021/09/27 08:28:36;;;;;;;2.85;1.80;;;25.10;52.60;;;;;;5025354;28;20052;-61
2021/09/27 08:31:10;;;;;;;2.72;1.90;;;25.10;52.80;;;;;;5014009;28;20129;-50
2021/09/27 08:33:37;;;;;;;2.40;1.85;;;25.10;53.00;;;;;;5023613;28;20025;-63
2021/09/27 08:36:07;;;;;;;2.80;2.10;;;25.20;52.90;;;;;;5037172;28;20044;-54
2021/09/27 08:38:37;;;;;;;2.35;2.00;;;25.10;52.80;;;;;;5032950;28;20057;-59
2021/09/27 08:41:27;;;;;;;3.90;2.22;;;25.20;52.70;;;;;;5022012;28;20044;-60
2021/09/27 08:44:50;;;;;;;2.90;2.10;;;25.20;52.70;;;;;;5038006;28;20025;-60
2021/09/27 08:47:24;;;;;;;2.60;2.20;;;25.30;52.70;;;;;;5035662;28;20064;-60
2021/09/27 08:49:55;;;;;;;2.70;2.05;;;25.30;52.60;;;;;;5030599;28;20050;-60
2021/09/27 08:52:23;;;;;;;2.08;1.73;;;25.30;52.60;;;;;;5023332;28;20057;-59
2021/09/27 08:54:51;;;;;;;2.42;1.80;;;25.20;52.60;;;;;;5032744;28;20104;-65
2021/09/27 08:57:17;;;;;;;2.40;1.90;;;25.20;52.60;;;;;;5013137;28;20109;-52
2021/09/27 08:59:57;;;;;;;2.60;2.10;;;25.20;52.70;;;;;;5015435;28;20116;-64
2021/09/27 09:02:51;;;;;;;3.28;2.35;;;25.20;52.80;;;;;;5021287;28;20049;-60
2021/09/27 09:05:54;;;;;;;3.10;2.20;;;25.20;52.80;;;;;;5031676;28;20519;-63
2021/09/27 09:08:25;;;;;;;2.53;2.00;;;25.20;52.70;;;;;;5034664;28;20734;-60
2021/09/27 09:11:04;;;;;;;2.80;2.22;;;25.20;52.70;;;;;;5014009;28;20113;-54
2021/09/27 09:13:37;;;;;;;;;;;25.20;52.70;;;;;;5013597;28;20056;-55
2021/09/27 09:16:07;;;;;;;2.70;2.20;;;25.20;52.80;;;;;;5015805;28;19919;-62
2021/09/27 09:18:40;;;;;;;2.95;2.20;;;25.20;52.80;;;;;;5019376;28;20113;-65
2021/09/27 09:21:19;;;;;;;2.83;2.40;;;25.20;52.70;;;;;;5033864;28;20531;-60
2021/09/27 09:23:51;;;;;;;2.90;2.33;;;25.20;52.60;;;;;;5024417;28;20488;-60
2021/09/27 09:26:23;;;;;;;2.70;2.20;;;25.20;52.60;;;;;;5027616;28;20648;-59
2021/09/27 09:28:51;;;;;;;2.92;2.22;;;25.30;52.60;;;;;;5022417;28;20041;-60
2021/09/27 09:31:20;;;;;;;2.80;2.10;;;25.30;52.60;;;;;;5021663;28;20532;-63
2021/09/27 09:33:56;;;;;;;2.85;2.20;;;25.30;52.60;;;;;;5027406;28;20061;-54
2021/09/27 09:36:38;;;;;;;2.97;2.30;;;25.30;52.60;;;;;;5031507;28;20630;-61
2021/09/27 09:39:17;;;;;;;2.70;2.10;;;25.30;52.60;;;;;;5013651;28;20033;-57
2021/09/27 09:41:56;;;;;;;2.92;2.40;;;25.30;52.50;;;;;;5023490;28;20776;-59
2021/09/27 09:44:27;;;;;;;4.35;2.30;;;25.30;52.50;;;;;;5013732;28;20044;-59
2021/09/27 09:47:03;;;;;;;2.72;2.20;;;25.30;52.50;;;;;;5017566;28;20127;-60
2021/09/27 09:49:30;;;;;;;2.47;2.08;;;25.30;52.60;;;;;;5018784;28;20033;-60
2021/09/27 09:52:03;;;;;;;2.78;2.20;;;25.30;52.50;;;;;;5018030;28;20104;-61
2021/09/27 09:54:38;;;;;;;2.88;2.00;;;25.30;52.50;;;;;;5022588;28;20029;-60
2021/09/27 09:57:05;;;;;;;2.50;2.10;;;25.30;52.50;;;;;;5016136;28;20025;-61
2021/09/27 09:59:36;;;;;;;2.70;2.13;;;25.30;52.50;;;;;;5021663;28;20140;-63
2021/09/27 10:02:07;;;;;;;2.50;2.00;;;25.30;52.50;;;;;;5012427;28;20465;-60
2021/09/27 10:04:41;;;;;;;2.50;1.98;;;25.40;52.50;;;;;;5019300;28;20036;-60
2021/09/27 10:07:17;;;;;;;3.25;2.40;;;25.40;52.50;;;;;;5016168;28;20041;-63
2021/09/27 10:09:55;;;;;;;2.95;2.30;;;25.40;52.50;;;;;;5019029;28;20037;-60
2021/09/27 10:12:50;;;;;;;2.50;2.00;;;25.40;52.50;;;;;;5018620;28;20544;-55
2021/09/27 10:15:35;;;;;;;2.70;2.20;;;25.40;52.50;;;;;;5026619;28;20045;-54
2021/09/27 10:18:35;;;;;;;3.15;2.15;;;25.40;52.50;;;;;;5015295;28;20032;-61
2021/09/27 10:21:03;;;;;;;3.25;1.83;;;25.40;52.50;;;;;;5022396;28;20053;-51
2021/09/27 10:23:32;;;;;;;2.72;2.08;;;25.40;52.70;;;;;;5022472;28;20084;-59
2021/09/27 10:26:10;;;;;;;2.72;2.20;;;25.40;52.60;;;;;;5037520;28;20033;-59
2021/09/27 10:28:38;;;;;;;2.50;2.00;;;25.40;53.00;;;;;;5024135;28;20124;-57
2021/09/27 10:31:04;;;;;;;2.50;1.95;;;25.40;52.60;;;;;;5021952;28;20068;-49
2021/09/27 10:33:35;;;;;;;2.55;2.10;;;25.40;52.60;;;;;;5018033;28;20381;-58
2021/09/27 10:36:29;;;;;;;2.90;2.42;;;25.40;52.60;;;;;;5024656;28;20024;-59
2021/09/27 10:38:58;;;;;;;2.80;2.28;;;25.40;52.60;;;;;;5020706;28;20141;-59
2021/09/27 10:42:03;;;;;;;2.58;2.13;;;25.40;52.50;;;;;;5032159;28;20034;-60
2021/09/27 10:44:37;;;;;;;2.90;2.30;;;25.40;52.50;;;;;;5025122;28;20029;-56
2021/09/27 10:47:16;;;;;;;3.40;2.13;;;25.40;52.40;;;;;;5022602;28;20742;-57
2021/09/27 10:49:49;;;;;;;3.10;2.50;;;25.40;52.40;;;;;;5023278;28;20068;-58
2021/09/27 10:52:20;;;;;;;3.10;2.30;;;25.50;52.50;;;;;;5022631;28;20040;-59
2021/09/27 10:54:57;;;;;;;3.15;2.58;;;25.50;52.40;;;;;;5022119;28;20117;-60
2021/09/27 10:57:33;;;;;;;2.92;2.30;;;25.50;52.40;;;;;;5026202;28;20033;-61
2021/09/27 11:00:05;;;;;;;2.60;2.05;;;25.50;52.40;;;;;;5015646;28;20103;-58
2021/09/27 11:02:43;;;;;;;3.70;2.53;;;25.50;52.40;;;;;;5018808;28;20129;-57
2021/09/27 11:05:20;;;;;;;3.10;2.50;;;25.50;52.40;;;;;;5025050;28;20033;-55
2021/09/27 11:07:55;;;;;;;3.22;2.35;;;25.50;52.30;;;;;;5029237;28;20107;-60
2021/09/27 11:10:49;;;;;;;3.08;2.42;;;25.50;52.40;;;;;;5020094;28;20488;-58
2021/09/27 11:13:35;;;;;;;2.63;2.17;;;25.50;52.40;;;;;;5017708;28;20592;-51
2021/09/27 11:16:07;;;;;;;2.63;2.22;;;25.50;52.40;;;;;;5018228;28;20132;-60
2021/09/27 11:18:33;;;;;;;2.90;2.30;;;25.60;52.40;;;;;;5010275;28;20350;-56
2021/09/27 11:21:01;;;;;;;2.90;2.22;;;25.60;52.40;;;;;;5011990;28;20044;-57
2021/09/27 11:23:29;;;;;;;2.78;2.25;;;25.60;52.30;;;;;;5008959;28;20481;-50
2021/09/27 11:26:14;;;;;;;3.03;2.30;;;25.60;52.40;;;;;;5011876;28;20026;-59
2021/09/27 11:28:44;;;;;;;2.78;2.17;;;25.60;52.40;;;;;;5022425;28;20361;-57
2021/09/27 11:31:25;;;;;;;2.75;2.25;;;25.60;52.50;;;;;;5030563;28;20072;-57
2021/09/27 11:33:55;;;;;;;2.70;2.30;;;25.60;52.50;;;;;;5018407;28;21300;-57
2021/09/27 11:36:20;;;;;;;;;;;25.60;52.50;;;;;;5020421;28;20193;-57
2021/09/27 11:38:49;;;;;;;2.05;1.70;;;25.60;52.50;;;;;;5014977;28;19984;-55
2021/09/27 11:41:15;;;;;;;;;;;25.60;52.60;;;;;;5015704;28;20499;-47
2021/09/27 11:43:49;;;;;;;2.70;2.00;;;25.60;52.80;;;;;;5020519;28;19913;-59
2021/09/27 11:46:39;;;;;;;3.15;2.00;;;25.60;52.70;;;;;;5012752;28;20167;-53
2021/09/27 11:49:28;;;;;;;2.65;2.17;;;25.50;52.70;;;;;;5016082;28;20041;-52
2021/09/27 11:52:00;;;;;;;2.80;2.13;;;25.60;52.80;;;;;;5017559;28;20548;-60
2021/09/27 11:54:32;;;;;;;2.50;2.00;;;25.60;52.80;;;;;;5017213;28;20361;-59
2021/09/27 11:57:07;;;;;;;2.70;2.30;;;25.60;52.80;;;;;;5015162;28;20440;-53
2021/09/27 11:59:43;;;;;;;2.45;1.90;;;25.60;52.80;;;;;;5012610;28;20850;-58
2021/09/27 12:02:09;;;;;;;2.78;2.10;;;25.60;52.70;;;;;;5020310;28;20444;-53
2021/09/27 12:05:10;;;;;;;3.10;1.98;;;25.60;52.90;;;;;;5016342;28;20079;-59
2021/09/27 12:07:43;;;;;;;2.58;1.92;;;25.60;52.80;;;;;;5013975;28;20124;-57
2021/09/27 12:10:23;;;;;;;2.50;1.92;;;25.60;52.80;;;;;;5015633;28;20132;-57
2021/09/27 12:12:56;;;;;;;;;;;25.60;53.00;;;;;;5023789;28;20116;-55
2021/09/27 12:15:26;;;;;;;2.40;2.00;;;25.60;52.90;;;;;;5022105;28;19921;-56
2021/09/27 12:17:53;;;;;;;2.40;1.83;;;25.60;53.00;;;;;;5019470;28;20022;-57
2021/09/27 12:20:25;;;;;;;3.03;2.22;;;25.70;52.90;;;;;;5026740;28;20516;-59
2021/09/27 12:23:00;;;;;;;2.70;2.03;;;25.70;52.90;;;;;;5011483;28;20032;-57
2021/09/27 12:25:38;;;;;;;2.55;2.00;;;25.70;53.10;;;;;;5016363;28;20037;-59
2021/09/27 12:28:08;;;;;;;3.13;2.40;;;25.70;53.00;;;;;;5015436;28;20038;-59
2021/09/27 12:30:38;;;;;;;2.67;2.00;;;25.70;53.00;;;;;;5016677;28;20076;-58
2021/09/27 12:33:25;;;;;;;2.70;2.10;;;25.70;52.90;;;;;;5026556;28;20076;-50
2021/09/27 12:36:19;;;;;;;2.63;2.20;;;25.70;52.90;;;;;;5020451;28;20611;-58
2021/09/27 12:38:47;;;;;;;2.40;1.98;;;25.70;52.90;;;;;;5021683;28;20042;-59
2021/09/27 12:41:13;;;;;;;3.30;2.00;;;25.70;52.80;;;;;;5030573;28;20196;-58
2021/09/27 12:43:39;;;;;;;2.78;1.90;;;25.80;52.80;;;;;;5015690;28;20516;-59
2021/09/27 12:46:18;;;;;;;2.35;1.90;;;25.80;52.80;;;;;;5019622;28;20033;-58
2021/09/27 12:48:54;;;;;;;2.63;1.90;;;25.80;52.80;;;;;;5031151;28;20030;-59
2021/09/27 12:51:31;;;;;;;2.60;2.10;;;25.80;52.80;;;;;;5021645;28;20689;-59
2021/09/27 12:54:04;;;;;;;2.97;2.15;;;25.80;52.80;;;;;;5033475;28;20033;-62
2021/09/27 12:56:31;;;;;;;2.67;1.90;;;25.80;52.80;;;;;;5021696;28;20026;-56
2021/09/27 12:59:13;;;;;;;2.30;1.98;;;25.80;52.80;;;;;;5020732;28;20564;-61
2021/09/27 13:01:45;;;;;;;3.05;2.20;;;25.80;52.90;;;;;;5009321;28;20481;-60
2021/09/27 13:04:18;;;;;;;3.03;2.40;;;25.80;52.90;;;;;;5010285;28;20036;-62
2021/09/27 13:06:54;;;;;;;3.10;2.33;;;25.80;52.80;;;;;;5015686;28;20034;-58
2021/09/27 13:09:26;;;;;;;4.03;2.30;;;25.80;52.80;;;;;;5019436;28;20043;-61
2021/09/27 13:12:25;;;;;;;2.58;2.10;;;25.80;52.70;;;;;;5018736;28;20095;-62
2021/09/27 13:14:54;;;;;;;2.30;1.90;;;25.80;52.70;;;;;;5020479;28;20117;-59
2021/09/27 13:17:23;;;;;;;2.38;1.77;;;25.80;52.90;;;;;;5014715;28;20107;-61
2021/09/27 13:19:54;;;;;;;2.80;2.10;;;25.70;52.90;;;;;;5015651;28;20066;-61
2021/09/27 13:22:42;;;;;;;2.70;1.92;;;25.80;52.90;;;;;;5022333;28;20061;-59
2021/09/27 13:25:23;;;;;;;2.08;1.70;;;25.80;52.90;;;;;;5008901;28;20369;-59
2021/09/27 13:27:59;;;;;;;2.50;2.00;;;25.80;53.00;;;;;;5012347;28;20029;-61
2021/09/27 13:30:32;;;;;;;2.83;1.80;;;25.80;52.90;;;;;;5009268;28;20038;-60
2021/09/27 13:33:07;;;;;;;2.50;1.90;;;25.80;52.80;;;;;;5008326;28;20038;-62
2021/09/27 13:35:39;;;;;;;2.45;1.90;;;25.80;52.90;;;;;;5020813;28;20025;-60
2021/09/27 13:38:16;;;;;;;2.50;2.00;;;25.90;53.00;;;;;;5016558;28;20054;-62